sensor_id;sensor_type;location;lat;lon;timestamp;P1;durP1;ratioP1;P2;durP2;ratioP2
70825;SDS011;58446;41.490;22.098;2023-06-10T00:01:37;7.63;;;4.18;;
70825;SDS011;58446;41.490;22.098;2023-06-10T00:04:03;8.30;;;4.30;;
70825;SDS011;58446;41.490;22.098;2023-06-10T00:06:30;7.80;;;4.17;;
70825;SDS011;58446;41.490;22.098;2023-06-10T00:09:01;7.85;;;3.55;;
70825;SDS011;58446;41.490;22.098;2023-06-10T00:11:31;7.43;;;4.38;;
70825;SDS011;58446;41.490;22.098;2023-06-10T00:14:01;8.65;;;4.20;;
70825;SDS011;58446;41.490;22.098;2023-06-10T00:16:27;7.75;;;4.10;;
70825;SDS011;58446;41.490;22.098;2023-06-10T00:18:53;7.77;;;4.53;;
70825;SDS011;58446;41.490;22.098;2023-06-10T00:21:21;10.60;;;4.50;;
70825;SDS011;58446;41.490;22.098;2023-06-10T00:23:47;8.50;;;4.20;;
70825;SDS011;58446;41.490;22.098;2023-06-10T00:26:13;8.07;;;3.92;;
70825;SDS011;58446;41.490;22.098;2023-06-10T00:28:39;7.57;;;4.07;;
70825;SDS011;58446;41.490;22.098;2023-06-10T00:31:05;8.40;;;4.55;;
70825;SDS011;58446;41.490;22.098;2023-06-10T00:33:31;8.33;;;4.27;;
70825;SDS011;58446;41.490;22.098;2023-06-10T00:35:56;8.98;;;4.43;;
70825;SDS011;58446;41.490;22.098;2023-06-10T00:38:22;10.13;;;4.40;;
70825;SDS011;58446;41.490;22.098;2023-06-10T00:40:48;8.10;;;4.40;;
70825;SDS011;58446;41.490;22.098;2023-06-10T00:43:23;8.85;;;4.63;;
70825;SDS011;58446;41.490;22.098;2023-06-10T00:45:49;8.27;;;4.82;;
70825;SDS011;58446;41.490;22.098;2023-06-10T00:48:15;8.77;;;4.60;;
70825;SDS011;58446;41.490;22.098;2023-06-10T00:50:41;9.38;;;4.78;;
70825;SDS011;58446;41.490;22.098;2023-06-10T00:53:07;8.00;;;4.50;;
70825;SDS011;58446;41.490;22.098;2023-06-10T00:55:33;8.23;;;4.90;;
70825;SDS011;58446;41.490;22.098;2023-06-10T00:58:00;8.18;;;5.10;;
70825;SDS011;58446;41.490;22.098;2023-06-10T01:00:26;9.97;;;4.60;;
70825;SDS011;58446;41.490;22.098;2023-06-10T01:02:52;8.05;;;4.85;;
70825;SDS011;58446;41.490;22.098;2023-06-10T01:05:18;10.65;;;4.97;;
70825;SDS011;58446;41.490;22.098;2023-06-10T01:13:09;8.33;;;4.37;;
70825;SDS011;58446;41.490;22.098;2023-06-10T01:15:39;9.13;;;4.90;;
70825;SDS011;58446;41.490;22.098;2023-06-10T01:18:06;7.47;;;4.45;;
70825;SDS011;58446;41.490;22.098;2023-06-10T01:20:35;8.35;;;4.38;;
70825;SDS011;58446;41.490;22.098;2023-06-10T01:23:05;8.50;;;5.03;;
70825;SDS011;58446;41.490;22.098;2023-06-10T01:25:32;9.60;;;4.73;;
70825;SDS011;58446;41.490;22.098;2023-06-10T01:28:21;8.55;;;4.72;;
70825;SDS011;58446;41.490;22.098;2023-06-10T01:31:01;8.95;;;4.55;;
70825;SDS011;58446;41.490;22.098;2023-06-10T01:33:52;8.88;;;4.68;;
70825;SDS011;58446;41.490;22.098;2023-06-10T01:36:18;8.90;;;4.88;;
70825;SDS011;58446;41.490;22.098;2023-06-10T01:38:47;9.03;;;5.10;;
70825;SDS011;58446;41.490;22.098;2023-06-10T01:41:18;9.15;;;4.47;;
70825;SDS011;58446;41.490;22.098;2023-06-10T01:43:46;8.30;;;4.40;;
70825;SDS011;58446;41.490;22.098;2023-06-10T01:46:13;7.70;;;4.43;;
70825;SDS011;58446;41.490;22.098;2023-06-10T01:48:41;8.30;;;4.82;;
70825;SDS011;58446;41.490;22.098;2023-06-10T01:51:07;8.77;;;4.57;;
70825;SDS011;58446;41.490;22.098;2023-06-10T01:53:33;7.75;;;4.63;;
70825;SDS011;58446;41.490;22.098;2023-06-10T01:55:59;8.90;;;4.95;;
70825;SDS011;58446;41.490;22.098;2023-06-10T01:58:25;8.70;;;4.53;;
70825;SDS011;58446;41.490;22.098;2023-06-10T02:00:50;9.35;;;5.05;;
70825;SDS011;58446;41.490;22.098;2023-06-10T02:03:16;8.02;;;4.25;;
70825;SDS011;58446;41.490;22.098;2023-06-10T02:05:43;10.10;;;5.17;;
70825;SDS011;58446;41.490;22.098;2023-06-10T02:08:09;8.85;;;4.53;;
70825;SDS011;58446;41.490;22.098;2023-06-10T02:10:35;9.25;;;4.03;;
70825;SDS011;58446;41.490;22.098;2023-06-10T02:13:00;8.53;;;5.17;;
70825;SDS011;58446;41.490;22.098;2023-06-10T02:15:26;8.45;;;4.97;;
70825;SDS011;58446;41.490;22.098;2023-06-10T02:17:52;8.97;;;5.10;;
70825;SDS011;58446;41.490;22.098;2023-06-10T02:20:18;9.48;;;5.60;;
70825;SDS011;58446;41.490;22.098;2023-06-10T02:22:44;8.27;;;5.05;;
70825;SDS011;58446;41.490;22.098;2023-06-10T02:25:09;9.73;;;4.93;;
70825;SDS011;58446;41.490;22.098;2023-06-10T02:27:35;8.57;;;5.43;;
70825;SDS011;58446;41.490;22.098;2023-06-10T02:30:01;8.50;;;5.27;;
70825;SDS011;58446;41.490;22.098;2023-06-10T02:32:27;8.30;;;5.10;;
70825;SDS011;58446;41.490;22.098;2023-06-10T02:34:53;9.85;;;5.88;;
70825;SDS011;58446;41.490;22.098;2023-06-10T02:37:19;9.93;;;5.93;;
70825;SDS011;58446;41.490;22.098;2023-06-10T02:39:45;9.80;;;6.20;;
70825;SDS011;58446;41.490;22.098;2023-06-10T02:42:11;8.95;;;5.50;;
70825;SDS011;58446;41.490;22.098;2023-06-10T02:44:37;10.93;;;5.67;;
70825;SDS011;58446;41.490;22.098;2023-06-10T02:47:03;14.23;;;5.80;;
70825;SDS011;58446;41.490;22.098;2023-06-10T02:49:30;8.32;;;5.68;;
70825;SDS011;58446;41.490;22.098;2023-06-10T02:51:55;8.98;;;5.72;;
70825;SDS011;58446;41.490;22.098;2023-06-10T02:54:22;10.05;;;5.85;;
70825;SDS011;58446;41.490;22.098;2023-06-10T02:56:49;7.67;;;5.37;;
70825;SDS011;58446;41.490;22.098;2023-06-10T02:59:15;10.45;;;5.53;;
70825;SDS011;58446;41.490;22.098;2023-06-10T03:01:41;10.68;;;5.93;;
70825;SDS011;58446;41.490;22.098;2023-06-10T03:04:07;9.90;;;5.43;;
70825;SDS011;58446;41.490;22.098;2023-06-10T03:06:33;9.95;;;5.88;;
70825;SDS011;58446;41.490;22.098;2023-06-10T03:09:00;9.00;;;5.37;;
70825;SDS011;58446;41.490;22.098;2023-06-10T03:11:27;9.70;;;5.75;;
70825;SDS011;58446;41.490;22.098;2023-06-10T03:13:52;9.32;;;5.88;;
70825;SDS011;58446;41.490;22.098;2023-06-10T03:16:21;9.00;;;5.43;;
70825;SDS011;58446;41.490;22.098;2023-06-10T03:18:47;10.02;;;5.70;;
70825;SDS011;58446;41.490;22.098;2023-06-10T03:21:14;9.80;;;5.68;;
70825;SDS011;58446;41.490;22.098;2023-06-10T03:23:39;10.70;;;6.00;;
70825;SDS011;58446;41.490;22.098;2023-06-10T03:26:05;11.95;;;5.70;;
70825;SDS011;58446;41.490;22.098;2023-06-10T03:28:31;8.25;;;4.90;;
70825;SDS011;58446;41.490;22.098;2023-06-10T03:30:57;10.83;;;5.30;;
70825;SDS011;58446;41.490;22.098;2023-06-10T03:33:23;10.25;;;5.80;;
70825;SDS011;58446;41.490;22.098;2023-06-10T03:35:48;11.53;;;5.30;;
70825;SDS011;58446;41.490;22.098;2023-06-10T03:38:15;9.68;;;5.43;;
70825;SDS011;58446;41.490;22.098;2023-06-10T03:40:41;10.05;;;5.30;;
70825;SDS011;58446;41.490;22.098;2023-06-10T03:43:07;9.52;;;4.78;;
70825;SDS011;58446;41.490;22.098;2023-06-10T03:45:33;8.90;;;5.40;;
70825;SDS011;58446;41.490;22.098;2023-06-10T03:48:00;10.15;;;5.25;;
70825;SDS011;58446;41.490;22.098;2023-06-10T03:50:26;9.25;;;5.60;;
70825;SDS011;58446;41.490;22.098;2023-06-10T03:52:52;8.13;;;5.43;;
70825;SDS011;58446;41.490;22.098;2023-06-10T03:55:18;9.23;;;5.17;;
70825;SDS011;58446;41.490;22.098;2023-06-10T03:57:46;12.18;;;5.63;;
70825;SDS011;58446;41.490;22.098;2023-06-10T04:00:13;9.68;;;5.38;;
70825;SDS011;58446;41.490;22.098;2023-06-10T04:02:40;8.45;;;5.55;;
70825;SDS011;58446;41.490;22.098;2023-06-10T04:05:14;8.93;;;5.47;;
70825;SDS011;58446;41.490;22.098;2023-06-10T04:07:41;8.55;;;6.38;;
70825;SDS011;58446;41.490;22.098;2023-06-10T04:10:09;9.90;;;5.90;;
70825;SDS011;58446;41.490;22.098;2023-06-10T04:12:37;10.10;;;6.25;;
70825;SDS011;58446;41.490;22.098;2023-06-10T04:15:03;11.13;;;6.35;;
70825;SDS011;58446;41.490;22.098;2023-06-10T04:17:30;12.00;;;6.10;;
70825;SDS011;58446;41.490;22.098;2023-06-10T04:19:56;9.50;;;5.97;;
70825;SDS011;58446;41.490;22.098;2023-06-10T04:22:23;9.85;;;6.50;;
70825;SDS011;58446;41.490;22.098;2023-06-10T04:24:48;11.05;;;5.82;;
70825;SDS011;58446;41.490;22.098;2023-06-10T04:27:14;9.20;;;5.10;;
70825;SDS011;58446;41.490;22.098;2023-06-10T04:29:40;10.30;;;5.95;;
70825;SDS011;58446;41.490;22.098;2023-06-10T04:32:06;10.15;;;5.90;;
70825;SDS011;58446;41.490;22.098;2023-06-10T04:34:33;9.40;;;5.07;;
70825;SDS011;58446;41.490;22.098;2023-06-10T04:36:59;9.38;;;5.00;;
70825;SDS011;58446;41.490;22.098;2023-06-10T04:39:25;9.48;;;5.40;;
70825;SDS011;58446;41.490;22.098;2023-06-10T04:41:51;9.85;;;5.93;;
70825;SDS011;58446;41.490;22.098;2023-06-10T04:44:17;10.10;;;6.00;;
70825;SDS011;58446;41.490;22.098;2023-06-10T04:46:43;10.48;;;5.80;;
70825;SDS011;58446;41.490;22.098;2023-06-10T04:49:09;10.13;;;6.10;;
70825;SDS011;58446;41.490;22.098;2023-06-10T04:51:35;9.63;;;5.80;;
70825;SDS011;58446;41.490;22.098;2023-06-10T04:54:01;9.50;;;6.03;;
70825;SDS011;58446;41.490;22.098;2023-06-10T04:56:29;11.43;;;5.78;;
70825;SDS011;58446;41.490;22.098;2023-06-10T04:58:56;12.00;;;5.40;;
70825;SDS011;58446;41.490;22.098;2023-06-10T05:01:22;10.95;;;5.78;;
70825;SDS011;58446;41.490;22.098;2023-06-10T05:03:48;9.57;;;5.47;;
70825;SDS011;58446;41.490;22.098;2023-06-10T05:06:14;11.25;;;5.20;;
70825;SDS011;58446;41.490;22.098;2023-06-10T05:08:40;11.70;;;5.77;;
70825;SDS011;58446;41.490;22.098;2023-06-10T05:11:05;8.48;;;5.95;;
70825;SDS011;58446;41.490;22.098;2023-06-10T05:13:31;10.37;;;5.47;;
70825;SDS011;58446;41.490;22.098;2023-06-10T05:15:57;10.52;;;5.38;;
70825;SDS011;58446;41.490;22.098;2023-06-10T05:18:24;9.82;;;5.50;;
70825;SDS011;58446;41.490;22.098;2023-06-10T05:20:50;10.65;;;5.68;;
70825;SDS011;58446;41.490;22.098;2023-06-10T05:23:16;10.87;;;5.33;;
70825;SDS011;58446;41.490;22.098;2023-06-10T05:25:41;10.95;;;5.53;;
70825;SDS011;58446;41.490;22.098;2023-06-10T05:28:07;11.40;;;5.90;;
70825;SDS011;58446;41.490;22.098;2023-06-10T05:30:38;8.70;;;5.03;;
70825;SDS011;58446;41.490;22.098;2023-06-10T05:33:04;12.43;;;5.40;;
70825;SDS011;58446;41.490;22.098;2023-06-10T05:35:30;10.95;;;5.90;;
70825;SDS011;58446;41.490;22.098;2023-06-10T05:37:56;10.75;;;5.53;;
70825;SDS011;58446;41.490;22.098;2023-06-10T05:40:22;10.70;;;5.50;;
70825;SDS011;58446;41.490;22.098;2023-06-10T05:42:47;10.90;;;5.70;;
70825;SDS011;58446;41.490;22.098;2023-06-10T05:45:13;10.68;;;6.15;;
70825;SDS011;58446;41.490;22.098;2023-06-10T05:47:39;8.97;;;5.33;;
70825;SDS011;58446;41.490;22.098;2023-06-10T05:50:05;11.13;;;6.18;;
70825;SDS011;58446;41.490;22.098;2023-06-10T05:52:34;8.07;;;5.53;;
70825;SDS011;58446;41.490;22.098;2023-06-10T05:55:01;10.43;;;5.43;;
70825;SDS011;58446;41.490;22.098;2023-06-10T05:57:27;10.40;;;6.05;;
70825;SDS011;58446;41.490;22.098;2023-06-10T05:59:53;10.20;;;5.45;;
70825;SDS011;58446;41.490;22.098;2023-06-10T06:02:19;10.47;;;5.40;;
70825;SDS011;58446;41.490;22.098;2023-06-10T06:04:45;10.52;;;6.10;;
70825;SDS011;58446;41.490;22.098;2023-06-10T06:07:10;10.97;;;5.80;;
70825;SDS011;58446;41.490;22.098;2023-06-10T06:09:36;10.05;;;5.43;;
70825;SDS011;58446;41.490;22.098;2023-06-10T06:12:02;10.18;;;5.32;;
70825;SDS011;58446;41.490;22.098;2023-06-10T06:14:30;10.43;;;5.60;;
70825;SDS011;58446;41.490;22.098;2023-06-10T06:16:57;9.20;;;5.30;;
70825;SDS011;58446;41.490;22.098;2023-06-10T06:19:22;10.63;;;5.50;;
70825;SDS011;58446;41.490;22.098;2023-06-10T06:21:48;10.07;;;5.90;;
70825;SDS011;58446;41.490;22.098;2023-06-10T06:24:15;9.63;;;5.97;;
70825;SDS011;58446;41.490;22.098;2023-06-10T06:26:41;9.40;;;5.60;;
70825;SDS011;58446;41.490;22.098;2023-06-10T06:29:07;10.63;;;5.95;;
70825;SDS011;58446;41.490;22.098;2023-06-10T06:31:33;8.87;;;5.53;;
70825;SDS011;58446;41.490;22.098;2023-06-10T06:33:59;9.07;;;5.57;;
70825;SDS011;58446;41.490;22.098;2023-06-10T06:36:24;9.20;;;4.85;;
70825;SDS011;58446;41.490;22.098;2023-06-10T06:38:51;10.33;;;5.40;;
70825;SDS011;58446;41.490;22.098;2023-06-10T06:41:17;9.48;;;5.57;;
70825;SDS011;58446;41.490;22.098;2023-06-10T06:43:42;10.03;;;5.80;;
70825;SDS011;58446;41.490;22.098;2023-06-10T06:46:08;8.40;;;5.35;;
70825;SDS011;58446;41.490;22.098;2023-06-10T06:48:34;8.50;;;4.60;;
70825;SDS011;58446;41.490;22.098;2023-06-10T06:51:00;8.85;;;5.32;;
70825;SDS011;58446;41.490;22.098;2023-06-10T06:53:26;8.43;;;5.13;;
70825;SDS011;58446;41.490;22.098;2023-06-10T06:55:52;9.60;;;5.05;;
70825;SDS011;58446;41.490;22.098;2023-06-10T06:58:17;8.90;;;4.90;;
70825;SDS011;58446;41.490;22.098;2023-06-10T07:00:43;11.50;;;5.07;;
70825;SDS011;58446;41.490;22.098;2023-06-10T07:03:09;9.57;;;4.90;;
70825;SDS011;58446;41.490;22.098;2023-06-10T07:05:34;9.77;;;5.00;;
70825;SDS011;58446;41.490;22.098;2023-06-10T07:08:00;10.53;;;5.33;;
70825;SDS011;58446;41.490;22.098;2023-06-10T07:10:26;8.73;;;5.13;;
70825;SDS011;58446;41.490;22.098;2023-06-10T07:12:52;11.03;;;4.93;;
70825;SDS011;58446;41.490;22.098;2023-06-10T07:15:18;9.18;;;5.43;;
70825;SDS011;58446;41.490;22.098;2023-06-10T07:17:44;9.73;;;4.45;;
70825;SDS011;58446;41.490;22.098;2023-06-10T07:20:10;8.67;;;4.83;;
70825;SDS011;58446;41.490;22.098;2023-06-10T07:22:36;8.07;;;4.80;;
70825;SDS011;58446;41.490;22.098;2023-06-10T07:25:04;9.90;;;5.28;;
70825;SDS011;58446;41.490;22.098;2023-06-10T07:27:30;9.60;;;5.28;;
70825;SDS011;58446;41.490;22.098;2023-06-10T07:29:56;9.47;;;5.00;;
70825;SDS011;58446;41.490;22.098;2023-06-10T07:32:22;9.48;;;4.57;;
70825;SDS011;58446;41.490;22.098;2023-06-10T07:34:49;8.43;;;4.25;;
70825;SDS011;58446;41.490;22.098;2023-06-10T07:37:15;9.25;;;4.72;;
70825;SDS011;58446;41.490;22.098;2023-06-10T07:39:41;7.27;;;3.97;;
70825;SDS011;58446;41.490;22.098;2023-06-10T07:42:08;12.25;;;4.45;;
70825;SDS011;58446;41.490;22.098;2023-06-10T07:44:35;7.93;;;4.65;;
70825;SDS011;58446;41.490;22.098;2023-06-10T07:47:00;9.23;;;4.83;;
70825;SDS011;58446;41.490;22.098;2023-06-10T07:49:26;9.73;;;4.40;;
70825;SDS011;58446;41.490;22.098;2023-06-10T07:51:53;8.17;;;4.20;;
70825;SDS011;58446;41.490;22.098;2023-06-10T07:54:20;8.55;;;4.28;;
70825;SDS011;58446;41.490;22.098;2023-06-10T07:56:46;9.98;;;4.78;;
70825;SDS011;58446;41.490;22.098;2023-06-10T07:59:13;11.30;;;4.90;;
70825;SDS011;58446;41.490;22.098;2023-06-10T08:01:39;10.10;;;4.27;;
70825;SDS011;58446;41.490;22.098;2023-06-10T08:04:05;7.63;;;3.75;;
70825;SDS011;58446;41.490;22.098;2023-06-10T08:06:31;8.00;;;3.65;;
70825;SDS011;58446;41.490;22.098;2023-06-10T08:08:57;9.43;;;3.78;;
70825;SDS011;58446;41.490;22.098;2023-06-10T08:11:22;8.03;;;4.10;;
70825;SDS011;58446;41.490;22.098;2023-06-10T08:13:48;11.23;;;4.15;;
70825;SDS011;58446;41.490;22.098;2023-06-10T08:16:14;7.90;;;4.20;;
70825;SDS011;58446;41.490;22.098;2023-06-10T08:18:40;10.40;;;4.00;;
70825;SDS011;58446;41.490;22.098;2023-06-10T08:21:06;10.10;;;4.13;;
70825;SDS011;58446;41.490;22.098;2023-06-10T08:23:31;11.93;;;4.50;;
70825;SDS011;58446;41.490;22.098;2023-06-10T08:25:57;9.63;;;4.22;;
70825;SDS011;58446;41.490;22.098;2023-06-10T08:28:23;8.30;;;3.97;;
70825;SDS011;58446;41.490;22.098;2023-06-10T08:30:49;11.30;;;4.50;;
70825;SDS011;58446;41.490;22.098;2023-06-10T08:33:15;9.03;;;4.57;;
70825;SDS011;58446;41.490;22.098;2023-06-10T08:35:40;9.00;;;3.92;;
70825;SDS011;58446;41.490;22.098;2023-06-10T08:38:06;8.43;;;3.97;;
70825;SDS011;58446;41.490;22.098;2023-06-10T08:40:32;8.68;;;4.82;;
70825;SDS011;58446;41.490;22.098;2023-06-10T08:43:00;8.45;;;4.60;;
70825;SDS011;58446;41.490;22.098;2023-06-10T08:45:32;8.20;;;4.03;;
70825;SDS011;58446;41.490;22.098;2023-06-10T08:48:01;8.70;;;4.20;;
70825;SDS011;58446;41.490;22.098;2023-06-10T08:50:33;10.75;;;4.57;;
70825;SDS011;58446;41.490;22.098;2023-06-10T08:53:00;10.10;;;4.10;;
70825;SDS011;58446;41.490;22.098;2023-06-10T08:55:33;8.15;;;4.38;;
70825;SDS011;58446;41.490;22.098;2023-06-10T08:58:01;9.00;;;4.45;;
70825;SDS011;58446;41.490;22.098;2023-06-10T09:00:28;9.97;;;4.43;;
70825;SDS011;58446;41.490;22.098;2023-06-10T09:02:58;9.18;;;4.00;;
70825;SDS011;58446;41.490;22.098;2023-06-10T09:05:24;8.38;;;4.00;;
70825;SDS011;58446;41.490;22.098;2023-06-10T09:07:51;8.75;;;4.70;;
70825;SDS011;58446;41.490;22.098;2023-06-10T09:10:18;9.13;;;4.35;;
70825;SDS011;58446;41.490;22.098;2023-06-10T09:12:44;8.67;;;4.57;;
70825;SDS011;58446;41.490;22.098;2023-06-10T09:15:09;12.32;;;4.03;;
70825;SDS011;58446;41.490;22.098;2023-06-10T09:17:38;10.35;;;4.43;;
70825;SDS011;58446;41.490;22.098;2023-06-10T09:20:06;10.68;;;4.70;;
70825;SDS011;58446;41.490;22.098;2023-06-10T09:22:33;10.60;;;4.87;;
70825;SDS011;58446;41.490;22.098;2023-06-10T09:25:02;8.95;;;4.88;;
70825;SDS011;58446;41.490;22.098;2023-06-10T09:27:43;8.98;;;5.00;;
70825;SDS011;58446;41.490;22.098;2023-06-10T09:30:25;9.20;;;4.45;;
70825;SDS011;58446;41.490;22.098;2023-06-10T09:32:54;8.93;;;4.22;;
70825;SDS011;58446;41.490;22.098;2023-06-10T09:35:24;8.03;;;4.33;;
70825;SDS011;58446;41.490;22.098;2023-06-10T09:37:55;10.15;;;4.60;;
70825;SDS011;58446;41.490;22.098;2023-06-10T09:40:22;9.20;;;4.50;;
70825;SDS011;58446;41.490;22.098;2023-06-10T09:42:55;7.95;;;3.85;;
70825;SDS011;58446;41.490;22.098;2023-06-10T09:45:22;9.30;;;3.90;;
70825;SDS011;58446;41.490;22.098;2023-06-10T09:47:52;8.50;;;4.77;;
70825;SDS011;58446;41.490;22.098;2023-06-10T09:50:19;9.43;;;4.45;;
70825;SDS011;58446;41.490;22.098;2023-06-10T09:52:45;10.95;;;4.20;;
70825;SDS011;58446;41.490;22.098;2023-06-10T09:55:13;8.55;;;4.10;;
70825;SDS011;58446;41.490;22.098;2023-06-10T09:57:39;11.00;;;4.25;;
70825;SDS011;58446;41.490;22.098;2023-06-10T10:00:07;9.57;;;4.17;;
70825;SDS011;58446;41.490;22.098;2023-06-10T10:02:43;8.40;;;3.95;;
70825;SDS011;58446;41.490;22.098;2023-06-10T10:05:18;8.98;;;3.80;;
70825;SDS011;58446;41.490;22.098;2023-06-10T10:07:46;8.15;;;3.75;;
70825;SDS011;58446;41.490;22.098;2023-06-10T10:10:16;8.10;;;4.07;;
70825;SDS011;58446;41.490;22.098;2023-06-10T10:12:43;10.47;;;3.70;;
70825;SDS011;58446;41.490;22.098;2023-06-10T10:15:12;8.32;;;4.30;;
70825;SDS011;58446;41.490;22.098;2023-06-10T10:17:46;7.78;;;3.50;;
70825;SDS011;58446;41.490;22.098;2023-06-10T10:20:29;7.63;;;3.40;;
70825;SDS011;58446;41.490;22.098;2023-06-10T10:22:58;10.18;;;3.95;;
70825;SDS011;58446;41.490;22.098;2023-06-10T10:25:27;10.33;;;3.80;;
70825;SDS011;58446;41.490;22.098;2023-06-10T10:27:56;8.20;;;3.90;;
70825;SDS011;58446;41.490;22.098;2023-06-10T10:30:25;9.68;;;4.00;;
70825;SDS011;58446;41.490;22.098;2023-06-10T10:32:58;8.55;;;4.22;;
70825;SDS011;58446;41.490;22.098;2023-06-10T10:35:30;8.27;;;4.10;;
70825;SDS011;58446;41.490;22.098;2023-06-10T10:37:57;6.70;;;3.60;;
70825;SDS011;58446;41.490;22.098;2023-06-10T10:40:24;8.35;;;3.92;;
70825;SDS011;58446;41.490;22.098;2023-06-10T10:42:55;8.05;;;3.88;;
70825;SDS011;58446;41.490;22.098;2023-06-10T10:45:22;9.15;;;4.40;;
70825;SDS011;58446;41.490;22.098;2023-06-10T10:47:51;8.97;;;3.53;;
70825;SDS011;58446;41.490;22.098;2023-06-10T10:50:19;8.18;;;4.13;;
70825;SDS011;58446;41.490;22.098;2023-06-10T10:52:55;7.53;;;3.58;;
70825;SDS011;58446;41.490;22.098;2023-06-10T10:55:27;8.80;;;3.83;;
70825;SDS011;58446;41.490;22.098;2023-06-10T10:57:54;7.38;;;4.35;;
70825;SDS011;58446;41.490;22.098;2023-06-10T11:00:27;11.73;;;4.70;;
70825;SDS011;58446;41.490;22.098;2023-06-10T11:02:58;9.18;;;3.97;;
70825;SDS011;58446;41.490;22.098;2023-06-10T11:05:38;8.70;;;4.97;;
70825;SDS011;58446;41.490;22.098;2023-06-10T11:08:07;10.45;;;4.78;;
70825;SDS011;58446;41.490;22.098;2023-06-10T11:10:35;7.78;;;4.10;;
70825;SDS011;58446;41.490;22.098;2023-06-10T11:13:17;9.33;;;4.00;;
70825;SDS011;58446;41.490;22.098;2023-06-10T11:15:46;8.93;;;3.92;;
70825;SDS011;58446;41.490;22.098;2023-06-10T11:21:01;8.88;;;3.67;;
70825;SDS011;58446;41.490;22.098;2023-06-10T11:23:32;13.85;;;3.92;;
70825;SDS011;58446;41.490;22.098;2023-06-10T11:26:18;8.47;;;3.90;;
70825;SDS011;58446;41.490;22.098;2023-06-10T11:31:21;8.30;;;3.75;;
70825;SDS011;58446;41.490;22.098;2023-06-10T11:34:04;8.38;;;4.10;;
70825;SDS011;58446;41.490;22.098;2023-06-10T11:36:32;8.30;;;3.57;;
70825;SDS011;58446;41.490;22.098;2023-06-10T11:39:00;10.23;;;3.60;;
70825;SDS011;58446;41.490;22.098;2023-06-10T11:41:28;8.48;;;3.97;;
70825;SDS011;58446;41.490;22.098;2023-06-10T11:43:56;10.73;;;3.70;;
70825;SDS011;58446;41.490;22.098;2023-06-10T11:46:35;8.77;;;3.67;;
70825;SDS011;58446;41.490;22.098;2023-06-10T11:49:01;9.67;;;4.00;;
70825;SDS011;58446;41.490;22.098;2023-06-10T11:51:29;6.75;;;3.60;;
70825;SDS011;58446;41.490;22.098;2023-06-10T11:53:58;8.93;;;4.00;;
70825;SDS011;58446;41.490;22.098;2023-06-10T11:56:28;9.07;;;3.63;;
70825;SDS011;58446;41.490;22.098;2023-06-10T11:58:55;8.85;;;3.33;;
70825;SDS011;58446;41.490;22.098;2023-06-10T12:01:23;8.60;;;3.67;;
70825;SDS011;58446;41.490;22.098;2023-06-10T12:03:59;7.53;;;3.35;;
70825;SDS011;58446;41.490;22.098;2023-06-10T12:06:26;8.48;;;3.55;;
70825;SDS011;58446;41.490;22.098;2023-06-10T12:08:53;8.65;;;4.00;;
70825;SDS011;58446;41.490;22.098;2023-06-10T12:11:20;8.13;;;4.38;;
70825;SDS011;58446;41.490;22.098;2023-06-10T12:13:47;9.43;;;3.90;;
70825;SDS011;58446;41.490;22.098;2023-06-10T12:16:14;7.95;;;3.60;;
70825;SDS011;58446;41.490;22.098;2023-06-10T12:18:42;11.07;;;3.83;;
70825;SDS011;58446;41.490;22.098;2023-06-10T12:21:20;9.55;;;3.55;;
70825;SDS011;58446;41.490;22.098;2023-06-10T12:26:44;9.10;;;4.60;;
70825;SDS011;58446;41.490;22.098;2023-06-10T12:29:16;7.47;;;4.03;;
70825;SDS011;58446;41.490;22.098;2023-06-10T12:32:01;7.75;;;4.15;;
70825;SDS011;58446;41.490;22.098;2023-06-10T12:36:59;11.73;;;4.07;;
70825;SDS011;58446;41.490;22.098;2023-06-10T12:39:29;10.30;;;3.93;;
70825;SDS011;58446;41.490;22.098;2023-06-10T12:41:56;9.15;;;3.88;;
70825;SDS011;58446;41.490;22.098;2023-06-10T12:44:29;6.80;;;3.80;;
70825;SDS011;58446;41.490;22.098;2023-06-10T12:46:56;7.95;;;4.40;;
70825;SDS011;58446;41.490;22.098;2023-06-10T12:49:22;9.60;;;4.57;;
70825;SDS011;58446;41.490;22.098;2023-06-10T12:51:48;9.40;;;4.20;;
70825;SDS011;58446;41.490;22.098;2023-06-10T12:54:14;9.30;;;4.63;;
70825;SDS011;58446;41.490;22.098;2023-06-10T12:56:40;6.95;;;3.53;;
70825;SDS011;58446;41.490;22.098;2023-06-10T12:59:07;11.70;;;3.57;;
70825;SDS011;58446;41.490;22.098;2023-06-10T13:01:33;6.65;;;3.53;;
70825;SDS011;58446;41.490;22.098;2023-06-10T13:03:58;8.77;;;3.60;;
70825;SDS011;58446;41.490;22.098;2023-06-10T13:06:25;6.67;;;3.40;;
70825;SDS011;58446;41.490;22.098;2023-06-10T13:08:50;9.07;;;3.53;;
70825;SDS011;58446;41.490;22.098;2023-06-10T13:11:16;8.20;;;3.78;;
70825;SDS011;58446;41.490;22.098;2023-06-10T13:13:42;10.40;;;3.50;;
70825;SDS011;58446;41.490;22.098;2023-06-10T13:16:08;9.88;;;3.85;;
70825;SDS011;58446;41.490;22.098;2023-06-10T13:18:34;6.87;;;3.83;;
70825;SDS011;58446;41.490;22.098;2023-06-10T13:21:05;8.30;;;3.70;;
70825;SDS011;58446;41.490;22.098;2023-06-10T13:23:31;7.10;;;3.17;;
70825;SDS011;58446;41.490;22.098;2023-06-10T13:25:57;6.82;;;3.22;;
70825;SDS011;58446;41.490;22.098;2023-06-10T13:28:23;6.90;;;3.00;;
70825;SDS011;58446;41.490;22.098;2023-06-10T13:30:49;8.00;;;3.03;;
70825;SDS011;58446;41.490;22.098;2023-06-10T13:33:15;6.32;;;3.08;;
70825;SDS011;58446;41.490;22.098;2023-06-10T13:35:41;9.32;;;3.28;;
70825;SDS011;58446;41.490;22.098;2023-06-10T13:38:07;6.07;;;3.07;;
70825;SDS011;58446;41.490;22.098;2023-06-10T13:40:33;6.70;;;3.35;;
70825;SDS011;58446;41.490;22.098;2023-06-10T13:42:58;8.60;;;3.13;;
70825;SDS011;58446;41.490;22.098;2023-06-10T13:45:24;6.40;;;3.10;;
70825;SDS011;58446;41.490;22.098;2023-06-10T13:47:50;8.30;;;2.65;;
70825;SDS011;58446;41.490;22.098;2023-06-10T13:50:16;6.43;;;3.00;;
70825;SDS011;58446;41.490;22.098;2023-06-10T13:52:42;7.43;;;2.90;;
70825;SDS011;58446;41.490;22.098;2023-06-10T13:55:08;7.00;;;3.15;;
70825;SDS011;58446;41.490;22.098;2023-06-10T13:57:34;7.20;;;2.90;;
70825;SDS011;58446;41.490;22.098;2023-06-10T14:00:00;10.40;;;3.05;;
70825;SDS011;58446;41.490;22.098;2023-06-10T14:02:26;7.60;;;3.20;;
70825;SDS011;58446;41.490;22.098;2023-06-10T14:04:51;6.47;;;2.90;;
70825;SDS011;58446;41.490;22.098;2023-06-10T14:07:17;7.30;;;2.80;;
70825;SDS011;58446;41.490;22.098;2023-06-10T14:09:43;6.30;;;2.47;;
70825;SDS011;58446;41.490;22.098;2023-06-10T14:12:09;7.30;;;3.08;;
70825;SDS011;58446;41.490;22.098;2023-06-10T14:14:36;7.80;;;2.58;;
70825;SDS011;58446;41.490;22.098;2023-06-10T14:17:02;8.03;;;2.60;;
70825;SDS011;58446;41.490;22.098;2023-06-10T14:19:30;5.70;;;2.47;;
70825;SDS011;58446;41.490;22.098;2023-06-10T14:21:55;6.10;;;2.80;;
70825;SDS011;58446;41.490;22.098;2023-06-10T14:24:21;7.97;;;2.90;;
70825;SDS011;58446;41.490;22.098;2023-06-10T14:26:47;6.78;;;3.25;;
70825;SDS011;58446;41.490;22.098;2023-06-10T14:29:13;8.43;;;3.28;;
70825;SDS011;58446;41.490;22.098;2023-06-10T14:31:43;7.40;;;3.57;;
70825;SDS011;58446;41.490;22.098;2023-06-10T14:34:09;7.65;;;3.33;;
70825;SDS011;58446;41.490;22.098;2023-06-10T14:36:35;8.10;;;3.55;;
70825;SDS011;58446;41.490;22.098;2023-06-10T14:39:02;7.43;;;3.20;;
70825;SDS011;58446;41.490;22.098;2023-06-10T14:41:27;7.60;;;3.60;;
70825;SDS011;58446;41.490;22.098;2023-06-10T14:43:53;8.77;;;3.20;;
70825;SDS011;58446;41.490;22.098;2023-06-10T14:46:19;6.72;;;3.20;;
70825;SDS011;58446;41.490;22.098;2023-06-10T14:48:47;7.22;;;3.42;;